sensor_id;sensor_type;location;lat;lon;timestamp;temperature;humidity
27534;DHT22;14973;51.460;7.008;2023-04-25T00:01:04;6.90;27.00
27534;DHT22;14973;51.460;7.008;2023-04-25T00:03:30;7.00;21.60
27534;DHT22;14973;51.460;7.008;2023-04-25T00:05:57;7.00;24.40
27534;DHT22;14973;51.460;7.008;2023-04-25T00:08:23;7.00;24.60
27534;DHT22;14973;51.460;7.008;2023-04-25T00:10:48;7.00;21.80
27534;DHT22;14973;51.460;7.008;2023-04-25T00:13:14;7.00;19.80
27534;DHT22;14973;51.460;7.008;2023-04-25T00:15:40;7.00;21.20
27534;DHT22;14973;51.460;7.008;2023-04-25T00:18:07;7.00;24.80
27534;DHT22;14973;51.460;7.008;2023-04-25T00:20:32;7.00;25.70
27534;DHT22;14973;51.460;7.008;2023-04-25T00:22:58;7.10;24.20
27534;DHT22;14973;51.460;7.008;2023-04-25T00:25:23;7.00;29.10
27534;DHT22;14973;51.460;7.008;2023-04-25T00:27:49;7.00;29.50
27534;DHT22;14973;51.460;7.008;2023-04-25T00:30:14;7.10;34.20
27534;DHT22;14973;51.460;7.008;2023-04-25T00:32:40;7.10;34.00
27534;DHT22;14973;51.460;7.008;2023-04-25T00:35:05;7.10;33.60
27534;DHT22;14973;51.460;7.008;2023-04-25T00:37:31;7.10;30.40
27534;DHT22;14973;51.460;7.008;2023-04-25T00:39:57;7.10;29.40
27534;DHT22;14973;51.460;7.008;2023-04-25T00:42:23;7.20;25.50
27534;DHT22;14973;51.460;7.008;2023-04-25T00:44:50;7.20;28.00
27534;DHT22;14973;51.460;7.008;2023-04-25T00:47:17;7.20;22.00
27534;DHT22;14973;51.460;7.008;2023-04-25T00:49:42;7.20;28.80
27534;DHT22;14973;51.460;7.008;2023-04-25T00:52:08;7.20;29.10
27534;DHT22;14973;51.460;7.008;2023-04-25T00:54:33;7.30;26.50
27534;DHT22;14973;51.460;7.008;2023-04-25T00:56:59;7.20;30.10
27534;DHT22;14973;51.460;7.008;2023-04-25T00:59:26;7.30;31.40
27534;DHT22;14973;51.460;7.008;2023-04-25T01:01:53;7.20;25.40
27534;DHT22;14973;51.460;7.008;2023-04-25T01:04:18;7.20;25.80
27534;DHT22;14973;51.460;7.008;2023-04-25T01:06:44;7.20;26.40
27534;DHT22;14973;51.460;7.008;2023-04-25T01:09:10;7.20;29.40
27534;DHT22;14973;51.460;7.008;2023-04-25T01:11:35;7.20;28.30
27534;DHT22;14973;51.460;7.008;2023-04-25T01:14:01;7.30;27.40
27534;DHT22;14973;51.460;7.008;2023-04-25T01:16:27;7.30;20.10
27534;DHT22;14973;51.460;7.008;2023-04-25T01:18:53;7.20;22.90
27534;DHT22;14973;51.460;7.008;2023-04-25T01:21:19;7.20;27.80
27534;DHT22;14973;51.460;7.008;2023-04-25T01:23:44;7.20;24.90
27534;DHT22;14973;51.460;7.008;2023-04-25T01:26:11;7.20;26.10
27534;DHT22;14973;51.460;7.008;2023-04-25T01:28:37;7.20;29.30
27534;DHT22;14973;51.460;7.008;2023-04-25T01:31:04;7.30;33.30
27534;DHT22;14973;51.460;7.008;2023-04-25T01:33:31;7.20;28.60
27534;DHT22;14973;51.460;7.008;2023-04-25T01:35:56;7.20;27.80
27534;DHT22;14973;51.460;7.008;2023-04-25T01:38:22;7.10;36.00
27534;DHT22;14973;51.460;7.008;2023-04-25T01:40:47;7.10;40.40
27534;DHT22;14973;51.460;7.008;2023-04-25T01:43:14;7.10;48.60
27534;DHT22;14973;51.460;7.008;2023-04-25T01:45:40;7.10;52.40
27534;DHT22;14973;51.460;7.008;2023-04-25T01:48:10;7.10;52.40
27534;DHT22;14973;51.460;7.008;2023-04-25T01:50:37;7.20;52.90
27534;DHT22;14973;51.460;7.008;2023-04-25T01:53:03;7.20;50.40
27534;DHT22;14973;51.460;7.008;2023-04-25T01:55:29;7.10;49.90
27534;DHT22;14973;51.460;7.008;2023-04-25T01:57:54;7.10;54.20
27534;DHT22;14973;51.460;7.008;2023-04-25T02:00:20;7.10;58.60
27534;DHT22;14973;51.460;7.008;2023-04-25T02:02:46;7.10;62.30
27534;DHT22;14973;51.460;7.008;2023-04-25T02:05:11;7.10;58.80
27534;DHT22;14973;51.460;7.008;2023-04-25T02:07:37;7.10;65.30
27534;DHT22;14973;51.460;7.008;2023-04-25T02:10:03;7.10;69.30
27534;DHT22;14973;51.460;7.008;2023-04-25T02:12:29;7.10;67.80
27534;DHT22;14973;51.460;7.008;2023-04-25T02:14:54;7.00;77.30
27534;DHT22;14973;51.460;7.008;2023-04-25T02:17:20;7.10;79.10
27534;DHT22;14973;51.460;7.008;2023-04-25T02:19:46;7.10;73.90
27534;DHT22;14973;51.460;7.008;2023-04-25T02:22:12;7.10;78.80
27534;DHT22;14973;51.460;7.008;2023-04-25T02:24:37;7.10;85.00
27534;DHT22;14973;51.460;7.008;2023-04-25T02:27:03;7.10;87.10
27534;DHT22;14973;51.460;7.008;2023-04-25T02:29:29;7.20;76.70
27534;DHT22;14973;51.460;7.008;2023-04-25T02:31:55;7.20;80.40
27534;DHT22;14973;51.460;7.008;2023-04-25T02:34:20;7.10;77.90
27534;DHT22;14973;51.460;7.008;2023-04-25T02:36:46;7.10;85.00
27534;DHT22;14973;51.460;7.008;2023-04-25T02:39:11;7.10;86.40
27534;DHT22;14973;51.460;7.008;2023-04-25T02:41:37;7.10;90.40
27534;DHT22;14973;51.460;7.008;2023-04-25T02:44:02;7.10;83.80
27534;DHT22;14973;51.460;7.008;2023-04-25T02:46:28;7.10;91.80
27534;DHT22;14973;51.460;7.008;2023-04-25T02:48:53;7.10;92.80
27534;DHT22;14973;51.460;7.008;2023-04-25T02:51:19;7.00;95.70
27534;DHT22;14973;51.460;7.008;2023-04-25T02:53:44;7.10;95.80
27534;DHT22;14973;51.460;7.008;2023-04-25T02:56:09;7.20;96.00
27534;DHT22;14973;51.460;7.008;2023-04-25T02:58:35;7.20;93.30
27534;DHT22;14973;51.460;7.008;2023-04-25T03:01:01;7.20;94.70
27534;DHT22;14973;51.460;7.008;2023-04-25T03:03:26;7.20;92.00
27534;DHT22;14973;51.460;7.008;2023-04-25T03:05:52;7.30;91.60
27534;DHT22;14973;51.460;7.008;2023-04-25T03:08:17;7.20;81.00
27534;DHT22;14973;51.460;7.008;2023-04-25T03:10:44;7.20;84.80
27534;DHT22;14973;51.460;7.008;2023-04-25T03:13:09;7.20;88.60
27534;DHT22;14973;51.460;7.008;2023-04-25T03:15:35;7.20;89.00
27534;DHT22;14973;51.460;7.008;2023-04-25T03:18:01;7.10;91.60
27534;DHT22;14973;51.460;7.008;2023-04-25T03:20:26;7.10;93.80
27534;DHT22;14973;51.460;7.008;2023-04-25T03:22:52;7.00;96.00
27534;DHT22;14973;51.460;7.008;2023-04-25T03:25:17;7.00;96.90
27534;DHT22;14973;51.460;7.008;2023-04-25T03:27:43;7.00;99.80
27534;DHT22;14973;51.460;7.008;2023-04-25T03:30:08;7.00;99.90
27534;DHT22;14973;51.460;7.008;2023-04-25T03:32:34;7.00;99.90
27534;DHT22;14973;51.460;7.008;2023-04-25T03:35:00;7.00;99.90
27534;DHT22;14973;51.460;7.008;2023-04-25T03:37:26;6.80;99.90
27534;DHT22;14973;51.460;7.008;2023-04-25T03:39:51;6.80;99.90
27534;DHT22;14973;51.460;7.008;2023-04-25T03:42:17;6.80;99.90
27534;DHT22;14973;51.460;7.008;2023-04-25T03:44:43;6.80;99.90
27534;DHT22;14973;51.460;7.008;2023-04-25T03:47:08;6.80;99.90
27534;DHT22;14973;51.460;7.008;2023-04-25T03:49:34;6.80;99.90
27534;DHT22;14973;51.460;7.008;2023-04-25T03:52:00;6.80;99.90
27534;DHT22;14973;51.460;7.008;2023-04-25T03:54:25;6.80;99.90
27534;DHT22;14973;51.460;7.008;2023-04-25T03:56:51;6.80;99.90
27534;DHT22;14973;51.460;7.008;2023-04-25T03:59:16;6.80;99.90
27534;DHT22;14973;51.460;7.008;2023-04-25T04:01:42;6.80;99.90
27534;DHT22;14973;51.460;7.008;2023-04-25T04:04:07;6.80;99.90
27534;DHT22;14973;51.460;7.008;2023-04-25T04:06:33;6.80;99.90
27534;DHT22;14973;51.460;7.008;2023-04-25T04:08:59;6.90;99.90
27534;DHT22;14973;51.460;7.008;2023-04-25T04:11:24;6.90;99.90
27534;DHT22;14973;51.460;7.008;2023-04-25T04:13:50;6.90;99.90
27534;DHT22;14973;51.460;7.008;2023-04-25T04:16:15;6.90;99.90
27534;DHT22;14973;51.460;7.008;2023-04-25T04:18:41;6.80;99.90
27534;DHT22;14973;51.460;7.008;2023-04-25T04:21:06;6.80;99.90
27534;DHT22;14973;51.460;7.008;2023-04-25T04:23:32;6.80;99.90
27534;DHT22;14973;51.460;7.008;2023-04-25T04:25:57;6.80;99.90
27534;DHT22;14973;51.460;7.008;2023-04-25T04:28:23;6.80;99.90
27534;DHT22;14973;51.460;7.008;2023-04-25T04:30:48;6.70;99.90
27534;DHT22;14973;51.460;7.008;2023-04-25T04:33:16;6.70;99.90
27534;DHT22;14973;51.460;7.008;2023-04-25T04:35:44;6.70;99.90
27534;DHT22;14973;51.460;7.008;2023-04-25T04:38:09;6.80;99.90
27534;DHT22;14973;51.460;7.008;2023-04-25T04:40:36;6.70;99.90
27534;DHT22;14973;51.460;7.008;2023-04-25T04:43:02;6.70;99.90
27534;DHT22;14973;51.460;7.008;2023-04-25T04:45:28;6.70;99.90
27534;DHT22;14973;51.460;7.008;2023-04-25T04:47:54;6.70;99.90
27534;DHT22;14973;51.460;7.008;2023-04-25T04:50:20;6.70;99.90
27534;DHT22;14973;51.460;7.008;2023-04-25T04:52:46;6.60;99.90
27534;DHT22;14973;51.460;7.008;2023-04-25T04:55:11;6.70;99.90
27534;DHT22;14973;51.460;7.008;2023-04-25T04:57:37;6.50;99.90
27534;DHT22;14973;51.460;7.008;2023-04-25T05:00:04;6.60;99.90
27534;DHT22;14973;51.460;7.008;2023-04-25T05:02:30;6.70;99.90
27534;DHT22;14973;51.460;7.008;2023-04-25T05:04:56;6.70;99.90
27534;DHT22;14973;51.460;7.008;2023-04-25T05:07:21;6.70;99.90
27534;DHT22;14973;51.460;7.008;2023-04-25T05:09:47;6.90;99.90
27534;DHT22;14973;51.460;7.008;2023-04-25T05:12:12;6.90;99.90
27534;DHT22;14973;51.460;7.008;2023-04-25T05:14:38;6.90;99.90
27534;DHT22;14973;51.460;7.008;2023-04-25T05:17:03;7.10;99.90
27534;DHT22;14973;51.460;7.008;2023-04-25T05:19:31;7.10;98.60
27534;DHT22;14973;51.460;7.008;2023-04-25T05:21:57;7.20;92.60
27534;DHT22;14973;51.460;7.008;2023-04-25T05:24:22;7.20;78.80
27534;DHT22;14973;51.460;7.008;2023-04-25T05:26:48;7.20;74.90
27534;DHT22;14973;51.460;7.008;2023-04-25T05:29:13;7.40;71.10
27534;DHT22;14973;51.460;7.008;2023-04-25T05:31:39;7.50;55.90
27534;DHT22;14973;51.460;7.008;2023-04-25T05:34:04;7.70;43.20
27534;DHT22;14973;51.460;7.008;2023-04-25T05:36:30;7.80;34.40
27534;DHT22;14973;51.460;7.008;2023-04-25T05:38:57;7.70;26.60
27534;DHT22;14973;51.460;7.008;2023-04-25T05:41:23;7.80;19.40
27534;DHT22;14973;51.460;7.008;2023-04-25T05:43:48;7.70;16.40
27534;DHT22;14973;51.460;7.008;2023-04-25T05:46:14;7.80;22.00
27534;DHT22;14973;51.460;7.008;2023-04-25T05:48:42;7.90;17.10
27534;DHT22;14973;51.460;7.008;2023-04-25T05:51:08;8.00;14.00
27534;DHT22;14973;51.460;7.008;2023-04-25T05:53:33;8.10;1.90
27534;DHT22;14973;51.460;7.008;2023-04-25T05:55:59;8.20;1.00
27534;DHT22;14973;51.460;7.008;2023-04-25T05:58:24;8.30;1.00
27534;DHT22;14973;51.460;7.008;2023-04-25T06:00:50;8.30;1.00
27534;DHT22;14973;51.460;7.008;2023-04-25T06:03:16;8.20;1.00
27534;DHT22;14973;51.460;7.008;2023-04-25T06:05:42;8.40;1.00
27534;DHT22;14973;51.460;7.008;2023-04-25T06:08:08;8.60;1.00
27534;DHT22;14973;51.460;7.008;2023-04-25T06:10:34;8.70;1.00
27534;DHT22;14973;51.460;7.008;2023-04-25T06:12:59;9.00;1.00
27534;DHT22;14973;51.460;7.008;2023-04-25T06:15:25;9.00;1.00
27534;DHT22;14973;51.460;7.008;2023-04-25T06:17:50;9.20;1.00
27534;DHT22;14973;51.460;7.008;2023-04-25T06:20:16;9.50;99.90
27534;DHT22;14973;51.460;7.008;2023-04-25T06:22:41;10.00;1.00
27534;DHT22;14973;51.460;7.008;2023-04-25T06:25:07;10.80;99.90
27534;DHT22;14973;51.460;7.008;2023-04-25T06:27:35;11.70;1.20
27534;DHT22;14973;51.460;7.008;2023-04-25T06:30:01;12.90;99.90
27534;DHT22;14973;51.460;7.008;2023-04-25T06:32:26;14.70;1.00
27534;DHT22;14973;51.460;7.008;2023-04-25T06:34:53;16.30;1.00
27534;DHT22;14973;51.460;7.008;2023-04-25T06:37:19;18.30;99.90
27534;DHT22;14973;51.460;7.008;2023-04-25T06:39:45;18.40;99.90
27534;DHT22;14973;51.460;7.008;2023-04-25T06:42:10;18.30;99.90
27534;DHT22;14973;51.460;7.008;2023-04-25T06:44:36;18.00;99.90
27534;DHT22;14973;51.460;7.008;2023-04-25T06:47:01;16.20;99.90
27534;DHT22;14973;51.460;7.008;2023-04-25T06:49:27;14.70;99.90
27534;DHT22;14973;51.460;7.008;2023-04-25T06:51:52;14.00;99.90
27534;DHT22;14973;51.460;7.008;2023-04-25T06:54:17;13.10;99.90
27534;DHT22;14973;51.460;7.008;2023-04-25T06:56:43;12.40;1.00
27534;DHT22;14973;51.460;7.008;2023-04-25T06:59:08;11.00;1.00
27534;DHT22;14973;51.460;7.008;2023-04-25T07:01:34;10.40;99.90
27534;DHT22;14973;51.460;7.008;2023-04-25T07:04:00;10.30;99.90
27534;DHT22;14973;51.460;7.008;2023-04-25T07:06:26;10.50;99.90
27534;DHT22;14973;51.460;7.008;2023-04-25T07:08:53;10.80;1.00
27534;DHT22;14973;51.460;7.008;2023-04-25T07:11:18;10.90;1.00
27534;DHT22;14973;51.460;7.008;2023-04-25T07:13:44;10.90;1.00
27534;DHT22;14973;51.460;7.008;2023-04-25T07:16:09;10.70;1.00
27534;DHT22;14973;51.460;7.008;2023-04-25T07:18:35;10.60;1.00
27534;DHT22;14973;51.460;7.008;2023-04-25T07:21:00;10.60;1.00
27534;DHT22;14973;51.460;7.008;2023-04-25T07:23:26;10.60;5.00
27534;DHT22;14973;51.460;7.008;2023-04-25T07:25:52;10.60;65.50
27534;DHT22;14973;51.460;7.008;2023-04-25T07:28:17;10.60;99.50
27534;DHT22;14973;51.460;7.008;2023-04-25T07:30:43;10.50;99.90
27534;DHT22;14973;51.460;7.008;2023-04-25T07:33:09;10.40;95.30
27534;DHT22;14973;51.460;7.008;2023-04-25T07:35:34;10.40;99.90
27534;DHT22;14973;51.460;7.008;2023-04-25T07:38:01;10.70;87.70
27534;DHT22;14973;51.460;7.008;2023-04-25T07:40:27;11.00;1.00
27534;DHT22;14973;51.460;7.008;2023-04-25T07:42:52;11.30;1.00
27534;DHT22;14973;51.460;7.008;2023-04-25T07:45:18;11.50;1.00
27534;DHT22;14973;51.460;7.008;2023-04-25T07:47:43;11.70;1.00
27534;DHT22;14973;51.460;7.008;2023-04-25T07:50:09;12.90;1.00
27534;DHT22;14973;51.460;7.008;2023-04-25T07:52:35;14.20;99.90
27534;DHT22;14973;51.460;7.008;2023-04-25T07:55:01;16.20;99.90
27534;DHT22;14973;51.460;7.008;2023-04-25T07:57:26;18.30;99.90
27534;DHT22;14973;51.460;7.008;2023-04-25T07:59:52;20.80;99.90
27534;DHT22;14973;51.460;7.008;2023-04-25T08:02:18;21.20;99.90
27534;DHT22;14973;51.460;7.008;2023-04-25T08:04:43;21.00;99.90
27534;DHT22;14973;51.460;7.008;2023-04-25T08:07:09;20.80;99.90
27534;DHT22;14973;51.460;7.008;2023-04-25T08:09:35;20.90;99.90
27534;DHT22;14973;51.460;7.008;2023-04-25T08:12:02;20.00;99.90
27534;DHT22;14973;51.460;7.008;2023-04-25T08:14:28;19.50;99.90
27534;DHT22;14973;51.460;7.008;2023-04-25T08:16:56;20.20;99.90
27534;DHT22;14973;51.460;7.008;2023-04-25T08:19:22;20.60;99.90
27534;DHT22;14973;51.460;7.008;2023-04-25T08:21:47;19.80;99.90
27534;DHT22;14973;51.460;7.008;2023-04-25T08:24:13;20.10;99.90
27534;DHT22;14973;51.460;7.008;2023-04-25T08:26:38;21.10;99.90
27534;DHT22;14973;51.460;7.008;2023-04-25T08:29:04;21.10;99.90
27534;DHT22;14973;51.460;7.008;2023-04-25T08:31:30;20.60;99.90
27534;DHT22;14973;51.460;7.008;2023-04-25T08:33:56;19.20;99.90
27534;DHT22;14973;51.460;7.008;2023-04-25T08:36:22;17.90;99.90
27534;DHT22;14973;51.460;7.008;2023-04-25T08:38:48;16.50;99.90
27534;DHT22;14973;51.460;7.008;2023-04-25T08:41:13;15.60;99.90
27534;DHT22;14973;51.460;7.008;2023-04-25T08:43:42;14.90;99.90
27534;DHT22;14973;51.460;7.008;2023-04-25T08:46:08;14.30;99.90
27534;DHT22;14973;51.460;7.008;2023-04-25T08:48:33;14.20;99.90
27534;DHT22;14973;51.460;7.008;2023-04-25T08:51:01;14.50;99.90
27534;DHT22;14973;51.460;7.008;2023-04-25T08:53:28;15.40;99.90
27534;DHT22;14973;51.460;7.008;2023-04-25T08:55:54;16.50;99.90
27534;DHT22;14973;51.460;7.008;2023-04-25T08:58:21;18.20;99.90
27534;DHT22;14973;51.460;7.008;2023-04-25T09:00:47;18.50;99.90
27534;DHT22;14973;51.460;7.008;2023-04-25T09:03:13;18.30;99.90
27534;DHT22;14973;51.460;7.008;2023-04-25T09:05:40;18.70;99.90
27534;DHT22;14973;51.460;7.008;2023-04-25T09:08:06;19.50;99.90
27534;DHT22;14973;51.460;7.008;2023-04-25T09:10:32;19.80;99.90
27534;DHT22;14973;51.460;7.008;2023-04-25T09:13:05;19.40;99.90
27534;DHT22;14973;51.460;7.008;2023-04-25T09:15:31;19.20;99.90
27534;DHT22;14973;51.460;7.008;2023-04-25T09:17:57;18.40;99.90
27534;DHT22;14973;51.460;7.008;2023-04-25T09:20:23;17.30;99.90
27534;DHT22;14973;51.460;7.008;2023-04-25T09:22:49;16.90;99.90
27534;DHT22;14973;51.460;7.008;2023-04-25T09:25:26;16.10;99.90
27534;DHT22;14973;51.460;7.008;2023-04-25T09:27:54;15.20;99.90
27534;DHT22;14973;51.460;7.008;2023-04-25T09:30:30;15.10;99.90
27534;DHT22;14973;51.460;7.008;2023-04-25T09:32:56;15.80;99.90
27534;DHT22;14973;51.460;7.008;2023-04-25T09:35:26;17.30;99.90
27534;DHT22;14973;51.460;7.008;2023-04-25T09:37:51;18.70;99.90
27534;DHT22;14973;51.460;7.008;2023-04-25T09:40:17;19.50;99.90
27534;DHT22;14973;51.460;7.008;2023-04-25T09:42:43;18.80;99.90
27534;DHT22;14973;51.460;7.008;2023-04-25T09:45:08;18.80;99.90
27534;DHT22;14973;51.460;7.008;2023-04-25T09:47:37;18.50;99.90
27534;DHT22;14973;51.460;7.008;2023-04-25T09:50:04;17.80;99.90
27534;DHT22;14973;51.460;7.008;2023-04-25T09:52:38;17.00;99.90
27534;DHT22;14973;51.460;7.008;2023-04-25T09:55:04;16.80;99.90
27534;DHT22;14973;51.460;7.008;2023-04-25T09:57:31;16.50;99.90
27534;DHT22;14973;51.460;7.008;2023-04-25T09:59:57;16.10;99.90
27534;DHT22;14973;51.460;7.008;2023-04-25T10:02:25;15.80;99.90
27534;DHT22;14973;51.460;7.008;2023-04-25T10:04:51;16.00;99.90
27534;DHT22;14973;51.460;7.008;2023-04-25T10:07:20;16.10;99.90
27534;DHT22;14973;51.460;7.008;2023-04-25T10:09:49;16.60;99.90
27534;DHT22;14973;51.460;7.008;2023-04-25T10:12:17;17.00;99.90
27534;DHT22;14973;51.460;7.008;2023-04-25T10:14:43;16.90;99.90
27534;DHT22;14973;51.460;7.008;2023-04-25T10:17:10;17.20;99.90
27534;DHT22;14973;51.460;7.008;2023-04-25T10:19:36;16.90;99.90
27534;DHT22;14973;51.460;7.008;2023-04-25T10:24:27;16.10;99.90
27534;DHT22;14973;51.460;7.008;2023-04-25T10:26:53;15.30;99.90
27534;DHT22;14973;51.460;7.008;2023-04-25T10:29:22;14.70;99.90
27534;DHT22;14973;51.460;7.008;2023-04-25T10:31:49;14.60;99.90
27534;DHT22;14973;51.460;7.008;2023-04-25T10:34:15;14.30;99.90
27534;DHT22;14973;51.460;7.008;2023-04-25T10:36:40;14.50;99.90
27534;DHT22;14973;51.460;7.008;2023-04-25T10:39:06;14.80;99.90
27534;DHT22;14973;51.460;7.008;2023-04-25T10:41:46;14.70;99.90
27534;DHT22;14973;51.460;7.008;2023-04-25T10:44:13;14.40;99.90
27534;DHT22;14973;51.460;7.008;2023-04-25T10:46:38;14.10;99.90
27534;DHT22;14973;51.460;7.008;2023-04-25T10:49:04;13.60;99.90
27534;DHT22;14973;51.460;7.008;2023-04-25T10:51:33;13.20;99.90
27534;DHT22;14973;51.460;7.008;2023-04-25T10:56:31;12.30;99.90
27534;DHT22;14973;51.460;7.008;2023-04-25T11:01:41;11.90;99.90
27534;DHT22;14973;51.460;7.008;2023-04-25T11:09:26;11.30;99.90
27534;DHT22;14973;51.460;7.008;2023-04-25T11:11:58;11.00;99.90
27534;DHT22;14973;51.460;7.008;2023-04-25T11:14:24;10.90;99.90
27534;DHT22;14973;51.460;7.008;2023-04-25T11:16:59;10.90;99.90
27534;DHT22;14973;51.460;7.008;2023-04-25T11:19:25;10.80;99.90
27534;DHT22;14973;51.460;7.008;2023-04-25T11:21:54;10.90;99.90
27534;DHT22;14973;51.460;7.008;2023-04-25T11:24:21;10.70;99.90
27534;DHT22;14973;51.460;7.008;2023-04-25T11:26:50;10.90;99.90
27534;DHT22;14973;51.460;7.008;2023-04-25T11:29:16;11.30;99.90
27534;DHT22;14973;51.460;7.008;2023-04-25T11:31:44;12.00;99.90
27534;DHT22;14973;51.460;7.008;2023-04-25T11:34:11;12.60;99.90
27534;DHT22;14973;51.460;7.008;2023-04-25T11:36:36;13.10;99.90
27534;DHT22;14973;51.460;7.008;2023-04-25T11:39:04;13.70;99.90
27534;DHT22;14973;51.460;7.008;2023-04-25T11:41:31;13.80;99.90
27534;DHT22;14973;51.460;7.008;2023-04-25T11:43:56;14.10;99.90
27534;DHT22;14973;51.460;7.008;2023-04-25T11:46:22;14.20;99.90
27534;DHT22;14973;51.460;7.008;2023-04-25T11:48:48;14.00;99.90
27534;DHT22;14973;51.460;7.008;2023-04-25T11:51:15;13.80;99.90
27534;DHT22;14973;51.460;7.008;2023-04-25T11:53:41;13.60;99.90
27534;DHT22;14973;51.460;7.008;2023-04-25T11:56:11;13.70;99.90
27534;DHT22;14973;51.460;7.008;2023-04-25T11:58:56;13.60;99.90
27534;DHT22;14973;51.460;7.008;2023-04-25T12:01:31;13.60;99.90
27534;DHT22;14973;51.460;7.008;2023-04-25T12:03:57;13.50;99.90
27534;DHT22;14973;51.460;7.008;2023-04-25T12:06:27;13.70;99.90
27534;DHT22;14973;51.460;7.008;2023-04-25T12:09:03;13.90;99.90
27534;DHT22;14973;51.460;7.008;2023-04-25T12:11:30;14.00;99.90
27534;DHT22;14973;51.460;7.008;2023-04-25T12:13:55;13.80;99.90
27534;DHT22;14973;51.460;7.008;2023-04-25T12:16:21;13.90;99.90
27534;DHT22;14973;51.460;7.008;2023-04-25T12:18:47;13.60;99.90
27534;DHT22;14973;51.460;7.008;2023-04-25T12:21:13;13.60;99.90
27534;DHT22;14973;51.460;7.008;2023-04-25T12:23:38;13.40;99.90
27534;DHT22;14973;51.460;7.008;2023-04-25T12:26:04;13.60;99.90
27534;DHT22;14973;51.460;7.008;2023-04-25T12:28:32;13.70;99.90
27534;DHT22;14973;51.460;7.008;2023-04-25T12:31:02;13.40;99.90
27534;DHT22;14973;51.460;7.008;2023-04-25T12:33:29;13.30;99.90
27534;DHT22;14973;51.460;7.008;2023-04-25T12:35:55;13.30;99.90
27534;DHT22;14973;51.460;7.008;2023-04-25T12:38:27;13.50;99.90
27534;DHT22;14973;51.460;7.008;2023-04-25T12:40:55;13.50;99.90
27534;DHT22;14973;51.460;7.008;2023-04-25T12:43:21;13.30;99.90
27534;DHT22;14973;51.460;7.008;2023-04-25T12:45:47;13.40;99.90
27534;DHT22;14973;51.460;7.008;2023-04-25T12:48:14;13.80;99.90
27534;DHT22;14973;51.460;7.008;2023-04-25T12:50:40;14.10;99.90
27534;DHT22;14973;51.460;7.008;2023-04-25T12:53:06;14.50;99.90
27534;DHT22;14973;51.460;7.008;2023-04-25T12:55:32;14.70;99.90
27534;DHT22;14973;51.460;7.008;2023-04-25T12:57:57;15.00;99.90
27534;DHT22;14973;51.460;7.008;2023-04-25T13:00:23;15.00;99.90
27534;DHT22;14973;51.460;7.008;2023-04-25T13:02:48;15.20;99.90
27534;DHT22;14973;51.460;7.008;2023-04-25T13:05:14;14.30;99.90
27534;DHT22;14973;51.460;7.008;2023-04-25T13:07:40;14.20;99.90
27534;DHT22;14973;51.460;7.008;2023-04-25T13:10:06;13.70;99.90
27534;DHT22;14973;51.460;7.008;2023-04-25T13:12:32;13.30;99.90
27534;DHT22;14973;51.460;7.008;2023-04-25T13:14:58;12.90;99.90
27534;DHT22;14973;51.460;7.008;2023-04-25T13:17:24;12.40;99.90
27534;DHT22;14973;51.460;7.008;2023-04-25T13:19:49;12.40;99.90
27534;DHT22;14973;51.460;7.008;2023-04-25T13:22:15;12.40;99.90
27534;DHT22;14973;51.460;7.008;2023-04-25T13:24:42;12.10;99.90
27534;DHT22;14973;51.460;7.008;2023-04-25T13:27:08;11.70;99.90
27534;DHT22;14973;51.460;7.008;2023-04-25T13:29:33;11.60;99.90
27534;DHT22;14973;51.460;7.008;2023-04-25T13:32:01;11.30;99.90
27534;DHT22;14973;51.460;7.008;2023-04-25T13:34:27;11.20;99.90
27534;DHT22;14973;51.460;7.008;2023-04-25T13:36:53;11.50;99.90
27534;DHT22;14973;51.460;7.008;2023-04-25T13:39:19;11.80;99.90
27534;DHT22;14973;51.460;7.008;2023-04-25T13:41:45;12.20;99.90
27534;DHT22;14973;51.460;7.008;2023-04-25T13:44:10;12.80;99.90
27534;DHT22;14973;51.460;7.008;2023-04-25T13:46:36;13.20;99.90
27534;DHT22;14973;51.460;7.008;2023-04-25T13:49:03;13.30;99.90
27534;DHT22;14973;51.460;7.008;2023-04-25T13:51:28;13.60;99.90
27534;DHT22;14973;51.460;7.008;2023-04-25T13:53:54;13.90;99.90
27534;DHT22;14973;51.460;7.008;2023-04-25T13:56:19;13.90;99.90
27534;DHT22;14973;51.460;7.008;2023-04-25T13:58:45;14.00;99.90
27534;DHT22;14973;51.460;7.008;2023-04-25T14:01:11;14.00;99.90
27534;DHT22;14973;51.460;7.008;2023-04-25T14:03:37;13.90;99.90
27534;DHT22;14973;51.460;7.008;2023-04-25T14:06:02;13.70;99.90
27534;DHT22;14973;51.460;7.008;2023-04-25T14:08:29;13.30;99.90
27534;DHT22;14973;51.460;7.008;2023-04-25T14:10:55;13.00;99.90
27534;DHT22;14973;51.460;7.008;2023-04-25T14:13:21;12.90;99.90
27534;DHT22;14973;51.460;7.008;2023-04-25T14:15:46;12.90;99.90
27534;DHT22;14973;51.460;7.008;2023-04-25T14:18:12;13.00;99.90
27534;DHT22;14973;51.460;7.008;2023-04-25T14:20:38;12.70;99.90
27534;DHT22;14973;51.460;7.008;2023-04-25T14:23:03;12.40;99.90
27534;DHT22;14973;51.460;7.008;2023-04-25T14:25:30;12.10;99.90
27534;DHT22;14973;51.460;7.008;2023-04-25T14:27:55;12.10;99.90
27534;DHT22;14973;51.460;7.008;2023-04-25T14:30:21;12.30;99.90
27534;DHT22;14973;51.460;7.008;2023-04-25T14:32:50;12.40;99.90
27534;DHT22;14973;51.460;7.008;2023-04-25T14:35:15;12.60;99.90
27534;DHT22;14973;51.460;7.008;2023-04-25T14:37:41;12.90;99.90
27534;DHT22;14973;51.460;7.008;2023-04-25T14:40:07;13.10;99.90
27534;DHT22;14973;51.460;7.008;2023-04-25T14:42:36;13.40;99.90
27534;DHT22;14973;51.460;7.008;2023-04-25T14:45:02;13.50;99.90
27534;DHT22;14973;51.460;7.008;2023-04-25T14:47:28;13.60;99.90
27534;DHT22;14973;51.460;7.008;2023-04-25T14:49:55;13.60;99.90
27534;DHT22;14973;51.460;7.008;2023-04-25T14:52:21;13.60;99.90
27534;DHT22;14973;51.460;7.008;2023-04-25T14:54:47;13.30;99.90
27534;DHT22;14973;51.460;7.008;2023-04-25T14:57:12;13.00;99.90
27534;DHT22;14973;51.460;7.008;2023-04-25T14:59:38;12.80;99.90
27534;DHT22;14973;51.460;7.008;2023-04-25T15:02:04;12.50;99.90
27534;DHT22;14973;51.460;7.008;2023-04-25T15:04:29;12.20;99.90
27534;DHT22;14973;51.460;7.008;2023-04-25T15:06:55;12.30;99.90
27534;DHT22;14973;51.460;7.008;2023-04-25T15:09:21;12.20;99.90
27534;DHT22;14973;51.460;7.008;2023-04-25T15:11:48;12.30;99.90
27534;DHT22;14973;51.460;7.008;2023-04-25T15:14:13;12.30;99.90
27534;DHT22;14973;51.460;7.008;2023-04-25T15:16:39;12.30;99.90
27534;DHT22;14973;51.460;7.008;2023-04-25T15:19:04;12.20;99.90
27534;DHT22;14973;51.460;7.008;2023-04-25T15:21:30;12.30;99.90
27534;DHT22;14973;51.460;7.008;2023-04-25T15:23:56;12.30;99.90
27534;DHT22;14973;51.460;7.008;2023-04-25T15:26:22;12.10;99.90
27534;DHT22;14973;51.460;7.008;2023-04-25T15:28:50;12.30;99.90
27534;DHT22;14973;51.460;7.008;2023-04-25T15:31:17;12.30;99.90
27534;DHT22;14973;51.460;7.008;2023-04-25T15:33:43;12.50;99.90
27534;DHT22;14973;51.460;7.008;2023-04-25T15:36:08;12.40;99.90
27534;DHT22;14973;51.460;7.008;2023-04-25T15:38:35;12.30;99.90
27534;DHT22;14973;51.460;7.008;2023-04-25T15:41:01;12.20;99.90
27534;DHT22;14973;51.460;7.008;2023-04-25T15:43:26;12.10;99.90